Time;durP1;ratioP1;P1;durP2;ratioP2;P2;SDS_P1;SDS_P2;PMS_P1;PMS_P2;Temp;Humidity;BMP_temperature;BMP_pressure;BME280_temperature;BME280_humidity;BME280_pressure;Samples;Min_cycle;Max_cycle;Signal;HPM_P1;HPM_P2
2021/09/06 00:00:11;;;;;;;;;;;22.10;90.80;22.10;99852.00;;;;340062;28;90600;-92
2021/09/06 00:00:23;;;;;;;;;;;22.20;90.80;22.10;99850.00;;;;339041;28;83549;-93
2021/09/06 00:00:35;;;;;;;;;;;22.10;90.80;22.10;99852.00;;;;340026;28;90157;-93
2021/09/06 00:00:48;;;;;;;;;;;22.10;90.70;22.10;99854.00;;;;337781;28;83376;-92
2021/09/06 00:01:00;;;;;;;;;;;22.10;90.60;22.10;99847.00;;;;337346;28;92143;-92
2021/09/06 00:01:12;;;;;;;;;;;22.10;90.60;22.00;99848.00;;;;337785;28;83434;-93
2021/09/06 00:01:24;;;;;;;;;;;22.10;90.80;22.00;99846.00;;;;339845;28;89480;-93
2021/09/06 00:01:36;;;;;;;;;;;22.10;90.90;22.00;99848.00;;;;335112;29;82546;-92
2021/09/06 00:01:49;;;;;;;;;;;22.10;90.90;21.90;99850.00;;;;337314;28;91686;-92
2021/09/06 00:02:02;;;;;;;;;;;22.10;90.90;22.00;99858.00;;;;340435;28;82576;-92
2021/09/06 00:02:14;;;;;;;;;;;22.10;91.00;21.90;99845.00;;;;338684;28;91324;-92
2021/09/06 00:02:27;;;;;;;;;;;22.10;91.10;21.90;99840.00;;;;341770;28;83564;-92
2021/09/06 00:02:42;;;;;;;;;;;22.10;91.20;22.00;99848.00;;;;339871;28;91403;-92
2021/09/06 00:02:55;;;;;;;;;;;22.10;91.00;22.10;99851.00;;;;337759;28;82486;-92
2021/09/06 00:03:07;;;;;;;;;;;22.10;90.70;22.10;99854.00;;;;336088;29;91601;-93
2021/09/06 00:03:19;;;;;;;;;;;22.10;90.70;22.00;99858.00;;;;338683;28;83470;-92
2021/09/06 00:03:31;;;;;;;;;;;22.00;91.10;22.00;99848.00;;;;338648;28;90781;-93
2021/09/06 00:03:43;;;;;;;;;;;22.10;91.00;22.00;99850.00;;;;337751;28;83523;-92
2021/09/06 00:03:55;;;;;;;;;;;22.10;91.00;22.00;99848.00;;;;338528;28;92097;-92
2021/09/06 00:04:07;;;;;;;;;;;22.10;91.00;22.00;99848.00;;;;337850;28;82476;-92
2021/09/06 00:04:19;;;;;;;;;;;22.10;91.00;22.10;99854.00;;;;338535;28;91712;-92
2021/09/06 00:04:32;;;;;;;;;;;22.00;90.60;22.00;99845.00;;;;337786;28;83386;-92
2021/09/06 00:04:44;;;;;;;;;;;22.10;90.80;22.00;99851.00;;;;337301;28;90814;-92
2021/09/06 00:04:56;;;;;;;;;;;22.00;90.90;22.00;99849.00;;;;336438;28;82501;-93
2021/09/06 00:05:09;;;;;;;;;;;22.00;90.90;22.00;99850.00;;;;336133;29;91728;-93
2021/09/06 00:05:21;;;;;;;;;;;22.00;90.90;22.00;99841.00;;;;337793;28;83279;-92
2021/09/06 00:05:33;;;;;;;;;;;22.00;90.90;22.20;99846.00;;;;334752;29;91355;-93
2021/09/06 00:05:45;;;;;;;;;;;22.00;90.70;22.20;99848.00;;;;336230;28;83571;-92
2021/09/06 00:05:57;;;;;;;;;;;22.00;90.70;22.10;99848.00;;;;336000;29;91488;-92
2021/09/06 00:06:09;;;;;;;;;;;22.10;90.70;22.10;99848.00;;;;335251;29;82486;-93
2021/09/06 00:06:21;;;;;;;;;;;22.10;90.80;22.20;99845.00;;;;336047;28;90527;-93
2021/09/06 00:06:34;;;;;;;;;;;22.00;90.70;22.20;99854.00;;;;337846;28;82461;-92
2021/09/06 00:06:46;;;;;;;;;;;22.10;90.60;22.20;99849.00;;;;339990;28;91521;-92
2021/09/06 00:06:57;;;;;;;;;;;22.10;90.60;22.30;99849.00;;;;337727;28;82601;-92
2021/09/06 00:07:09;;;;;;;;;;;22.10;90.80;22.20;99848.00;;;;337387;28;91282;-92
2021/09/06 00:07:21;;;;;;;;;;;22.10;90.80;22.30;99849.00;;;;339156;28;82476;-92
2021/09/06 00:07:33;;;;;;;;;;;22.10;90.70;22.20;99850.00;;;;338673;28;90502;-93
2021/09/06 00:07:46;;;;;;;;;;;22.10;90.60;22.20;99847.00;;;;341777;28;83413;-92
2021/09/06 00:07:59;;;;;;;;;;;22.10;90.50;22.20;99844.00;;;;338624;28;92370;-92
2021/09/06 00:08:10;;;;;;;;;;;22.10;90.70;22.10;99846.00;;;;336498;28;82453;-93
2021/09/06 00:08:22;;;;;;;;;;;22.10;90.80;22.10;99847.00;;;;338694;28;91957;-92
2021/09/06 00:08:34;;;;;;;;;;;22.10;90.80;22.10;99846.00;;;;339123;28;83435;-92
2021/09/06 00:08:46;;;;;;;;;;;22.10;90.80;22.10;99847.00;;;;338705;28;90681;-92
2021/09/06 00:08:58;;;;;;;;;;;22.10;90.90;22.10;99847.00;;;;338965;28;83462;-93
2021/09/06 00:09:10;;;;;;;;;;;22.10;90.60;22.10;99840.00;;;;337297;28;90385;-93
2021/09/06 00:09:21;;;;;;;;;;;22.10;90.50;22.10;99848.00;;;;336281;29;83423;-93
2021/09/06 00:09:33;;;;;;;;;;;22.10;90.70;22.20;99844.00;;;;337315;28;92182;-92
2021/09/06 00:09:47;;;;;;;;;;;22.10;90.60;22.20;99842.00;;;;340436;28;83396;-93
2021/09/06 00:10:13;;;;;;;;;;;22.10;90.70;22.20;99844.00;;;;338627;28;92708;-92
2021/09/06 00:10:42;;;;;;;;;;;22.10;90.70;22.10;99853.00;;;;343208;28;83500;-92
2021/09/06 00:11:10;;;;;;;;;;;22.10;91.00;22.00;99856.00;;;;334654;29;90271;-92
2021/09/06 00:11:22;;;;;;;;;;;22.10;90.90;22.20;99841.00;;;;344690;28;83372;-92
2021/09/06 00:11:33;;;;;;;;;;;22.10;90.70;22.30;99850.00;;;;335916;29;91767;-92
2021/09/06 00:11:45;;;;;;;;;;;22.10;90.80;22.30;99851.00;;;;345206;28;88226;-92
2021/09/06 00:11:57;;;;;;;;;;;22.10;90.80;22.20;99844.00;;;;337363;28;91013;-92
2021/09/06 00:12:09;;;;;;;;;;;22.10;90.80;22.20;99845.00;;;;343399;28;82518;-93
2021/09/06 00:12:21;;;;;;;;;;;22.10;90.80;22.20;99847.00;;;;337270;28;92109;-92
2021/09/06 00:12:34;;;;;;;;;;;22.10;90.80;22.20;99844.00;;;;343233;28;83506;-92
2021/09/06 00:12:46;;;;;;;;;;;22.10;90.70;22.10;99849.00;;;;342851;28;92190;-92
2021/09/06 00:12:59;;;;;;;;;;;22.10;90.80;22.10;99851.00;;;;336445;28;82528;-93
2021/09/06 00:13:14;;;;;;;;;;;22.10;91.00;22.10;99845.00;;;;338747;28;90211;-92
2021/09/06 00:13:25;;;;;;;;;;;22.10;91.30;22.10;99852.00;;;;336490;28;82569;-92
2021/09/06 00:13:38;;;;;;;;;;;22.10;90.70;22.20;99844.00;;;;336058;28;90343;-92
2021/09/06 00:13:50;;;;;;;;;;;22.10;90.60;22.10;99846.00;;;;344923;28;83389;-92
2021/09/06 00:14:02;;;;;;;;;;;22.10;90.50;22.20;99851.00;;;;336244;28;91768;-92
2021/09/06 00:14:14;;;;;;;;;;;22.10;90.60;22.30;99849.00;;;;339188;28;83544;-92
2021/09/06 00:14:26;;;;;;;;;;;22.10;90.70;22.30;99844.00;;;;334961;29;91744;-92
2021/09/06 00:14:37;;;;;;;;;;;22.10;90.70;22.30;99841.00;;;;335379;29;83400;-92
2021/09/06 00:14:52;;;;;;;;;;;22.10;90.70;22.30;99842.00;;;;336257;28;90816;-92
2021/09/06 00:15:04;;;;;;;;;;;22.10;90.70;22.30;99852.00;;;;337966;28;83452;-93
2021/09/06 00:15:16;;;;;;;;;;;22.10;90.80;22.30;99845.00;;;;338979;28;90804;-92
2021/09/06 00:15:28;;;;;;;;;;;22.10;90.70;22.30;99847.00;;;;340572;28;82560;-92
2021/09/06 00:15:40;;;;;;;;;;;22.10;90.70;22.40;99848.00;;;;340246;28;90718;-92
2021/09/06 00:15:52;;;;;;;;;;;22.10;90.70;22.30;99852.00;;;;335508;29;83438;-92
2021/09/06 00:16:04;;;;;;;;;;;22.10;90.60;22.30;99840.00;;;;337629;28;90312;-92
2021/09/06 00:16:16;;;;;;;;;;;22.10;90.70;22.30;99849.00;;;;337947;28;83449;-91
2021/09/06 00:16:28;;;;;;;;;;;22.10;90.60;22.30;99851.00;;;;336243;28;90962;-91
2021/09/06 00:16:40;;;;;;;;;;;22.10;90.50;22.30;99842.00;;;;338041;28;83361;-92
2021/09/06 00:16:52;;;;;;;;;;;22.10;90.50;22.30;99842.00;;;;334814;29;92964;-92
2021/09/06 00:17:04;;;;;;;;;;;22.10;90.50;22.30;99844.00;;;;335329;29;83476;-92
2021/09/06 00:17:16;;;;;;;;;;;22.10;90.50;22.40;99845.00;;;;334936;29;90740;-92
2021/09/06 00:17:28;;;;;;;;;;;22.10;90.50;22.40;99850.00;;;;337925;28;83361;-92
2021/09/06 00:17:40;;;;;;;;;;;22.10;90.60;22.50;99848.00;;;;338802;28;90401;-93
2021/09/06 00:17:52;;;;;;;;;;;22.10;90.60;22.40;99844.00;;;;339252;28;83505;-92
2021/09/06 00:18:04;;;;;;;;;;;22.20;90.70;22.40;99844.00;;;;339951;28;90561;-92
2021/09/06 00:18:16;;;;;;;;;;;22.20;90.60;22.50;99848.00;;;;336641;28;83479;-93
2021/09/06 00:18:28;;;;;;;;;;;22.20;90.70;22.50;99850.00;;;;336208;28;91558;-92
2021/09/06 00:18:40;;;;;;;;;;;22.20;90.70;22.50;99848.00;;;;338035;28;82627;-92
2021/09/06 00:18:52;;;;;;;;;;;22.20;90.70;22.50;99845.00;;;;337451;28;92647;-92
2021/09/06 00:19:04;;;;;;;;;;;22.20;90.70;22.50;99845.00;;;;340632;28;83496;-93
2021/09/06 00:19:16;;;;;;;;;;;22.20;90.60;22.50;99843.00;;;;337588;28;90402;-92
2021/09/06 00:19:27;;;;;;;;;;;22.20;90.70;22.40;99845.00;;;;338090;28;83385;-92
2021/09/06 00:19:39;;;;;;;;;;;22.20;90.60;22.40;99849.00;;;;341496;28;91388;-92
2021/09/06 00:19:51;;;;;;;;;;;22.20;90.60;22.40;99847.00;;;;339223;28;82475;-92
2021/09/06 00:20:04;;;;;;;;;;;22.20;90.60;22.40;99850.00;;;;338900;28;92140;-92
2021/09/06 00:20:16;;;;;;;;;;;22.20;90.60;22.40;99844.00;;;;339243;28;82566;-92
2021/09/06 00:20:28;;;;;;;;;;;22.20;90.60;22.30;99843.00;;;;340320;28;87859;-92
2021/09/06 00:20:40;;;;;;;;;;;22.20;90.60;22.40;99853.00;;;;341961;28;83342;-93
2021/09/06 00:20:53;;;;;;;;;;;22.20;90.60;22.40;99842.00;;;;338778;28;92649;-92
2021/09/06 00:21:08;;;;;;;;;;;22.20;90.60;22.40;99854.00;;;;336558;28;84217;-92
2021/09/06 00:21:19;;;;;;;;;;;22.20;90.60;22.40;99844.00;;;;337500;28;90314;-92
2021/09/06 00:21:32;;;;;;;;;;;22.20;90.50;22.40;99846.00;;;;340531;28;83438;-92
2021/09/06 00:21:44;;;;;;;;;;;22.20;90.60;22.30;99848.00;;;;336292;28;90770;-92
2021/09/06 00:21:56;;;;;;;;;;;22.20;90.60;22.30;99844.00;;;;339300;28;83309;-92
2021/09/06 00:22:07;;;;;;;;;;;22.20;90.70;22.30;99847.00;;;;336257;28;91353;-92
2021/09/06 00:22:19;;;;;;;;;;;22.20;90.80;22.40;99843.00;;;;337850;28;83484;-92
2021/09/06 00:22:31;;;;;;;;;;;22.20;90.70;22.40;99855.00;;;;337559;28;90399;-92
2021/09/06 00:22:43;;;;;;;;;;;22.20;90.60;22.40;99844.00;;;;343598;28;82563;-92
2021/09/06 00:22:55;;;;;;;;;;;22.20;90.70;22.50;99855.00;;;;340110;28;91191;-92
2021/09/06 00:23:07;;;;;;;;;;;22.20;90.70;22.50;99850.00;;;;343543;28;82502;-92
2021/09/06 00:23:19;;;;;;;;;;;22.20;90.60;22.40;99852.00;;;;343083;28;91934;-93
2021/09/06 00:23:30;;;;;;;;;;;22.20;90.70;22.40;99843.00;;;;337987;28;82473;-92
2021/09/06 00:23:42;;;;;;;;;;;22.20;90.70;22.30;99861.00;;;;336241;28;89275;-92
2021/09/06 00:23:54;;;;;;;;;;;22.20;90.80;22.30;99849.00;;;;337865;28;83455;-92
2021/09/06 00:24:06;;;;;;;;;;;22.20;90.70;22.30;99845.00;;;;337305;28;89723;-92
2021/09/06 00:24:18;;;;;;;;;;;22.20;90.70;22.30;99848.00;;;;335265;29;83512;-92
2021/09/06 00:24:30;;;;;;;;;;;22.20;90.80;22.20;99856.00;;;;336272;28;92098;-92
2021/09/06 00:24:41;;;;;;;;;;;22.20;90.90;22.20;99859.00;;;;335363;29;83505;-93
2021/09/06 00:24:53;;;;;;;;;;;22.20;90.90;22.10;99851.00;;;;336114;28;94456;-92
2021/09/06 00:25:05;;;;;;;;;;;22.20;91.00;22.10;99855.00;;;;335224;29;83509;-92
2021/09/06 00:25:20;;;;;;;;;;;22.10;91.00;22.00;99852.00;;;;336267;28;90322;-92
2021/09/06 00:25:32;;;;;;;;;;;22.10;91.00;22.10;99854.00;;;;338000;28;82481;-92
2021/09/06 00:25:44;;;;;;;;;;;22.10;90.90;22.10;99857.00;;;;337484;28;91434;-92
2021/09/06 00:25:56;;;;;;;;;;;22.10;90.80;22.20;99855.00;;;;336696;28;83269;-92
2021/09/06 00:26:07;;;;;;;;;;;22.10;90.80;22.30;99847.00;;;;337481;28;91273;-92
2021/09/06 00:26:19;;;;;;;;;;;22.10;90.70;22.30;99853.00;;;;342008;28;83467;-93
2021/09/06 00:26:31;;;;;;;;;;;22.10;90.80;22.30;99851.00;;;;338828;28;92150;-92
2021/09/06 00:26:43;;;;;;;;;;;22.10;90.70;22.30;99853.00;;;;339240;28;83785;-93
2021/09/06 00:26:55;;;;;;;;;;;22.10;90.80;22.30;99854.00;;;;338740;28;92770;-92
2021/09/06 00:27:07;;;;;;;;;;;22.10;90.70;22.30;99859.00;;;;336487;28;83441;-92
2021/09/06 00:27:19;;;;;;;;;;;22.10;90.70;22.40;99849.00;;;;338857;28;91841;-92
2021/09/06 00:27:30;;;;;;;;;;;22.10;90.70;22.40;99846.00;;;;340703;28;82549;-92
2021/09/06 00:27:42;;;;;;;;;;;22.10;90.80;22.40;99849.00;;;;338807;28;91066;-92
2021/09/06 00:27:54;;;;;;;;;;;22.10;90.90;22.40;99845.00;;;;339370;28;83311;-92
2021/09/06 00:28:06;;;;;;;;;;;22.10;90.80;22.30;99852.00;;;;340257;28;90341;-92
2021/09/06 00:28:18;;;;;;;;;;;22.10;90.70;22.30;99851.00;;;;337892;28;83562;-92
2021/09/06 00:28:30;;;;;;;;;;;22.20;90.70;22.30;99846.00;;;;338855;28;91789;-92
2021/09/06 00:28:42;;;;;;;;;;;22.10;90.60;22.30;99852.00;;;;336661;28;83433;-92
2021/09/06 00:28:54;;;;;;;;;;;22.10;90.60;22.30;99851.00;;;;337521;28;90442;-92
2021/09/06 00:29:06;;;;;;;;;;;22.10;90.60;22.30;99854.00;;;;339290;28;83273;-92
2021/09/06 00:29:18;;;;;;;;;;;22.10;90.60;22.30;99853.00;;;;340173;28;91623;-92
2021/09/06 00:29:30;;;;;;;;;;;22.10;90.60;22.30;99855.00;;;;336667;28;83304;-92
2021/09/06 00:29:41;;;;;;;;;;;22.10;90.60;22.30;99853.00;;;;339490;28;90283;-91
2021/09/06 00:29:53;;;;;;;;;;;22.10;90.70;22.30;99850.00;;;;339412;28;83514;-92
2021/09/06 00:30:06;;;;;;;;;;;22.10;90.70;22.30;99852.00;;;;337503;28;91919;-92
2021/09/06 00:30:18;;;;;;;;;;;22.10;90.90;22.30;99850.00;;;;339278;28;82495;-92
2021/09/06 00:30:30;;;;;;;;;;;22.10;90.80;22.30;99852.00;;;;340200;28;91090;-92
2021/09/06 00:30:42;;;;;;;;;;;22.10;90.80;22.30;99848.00;;;;339235;28;83406;-91
2021/09/06 00:30:54;;;;;;;;;;;22.10;90.90;22.30;99852.00;;;;337432;28;92537;-92
2021/09/06 00:31:06;;;;;;;;;;;22.10;90.80;22.20;99849.00;;;;337917;28;83472;-92
2021/09/06 00:31:18;;;;;;;;;;;22.10;90.80;22.30;99848.00;;;;337598;28;90729;-92
2021/09/06 00:31:30;;;;;;;;;;;22.10;90.70;22.30;99852.00;;;;337949;28;83147;-93
2021/09/06 00:31:42;;;;;;;;;;;22.10;90.80;22.30;99853.00;;;;344457;28;91127;-92
2021/09/06 00:31:54;;;;;;;;;;;22.10;90.80;22.40;99846.00;;;;344901;28;83278;-92
2021/09/06 00:32:06;;;;;;;;;;;22.10;90.90;22.30;99848.00;;;;336249;28;90231;-92
2021/09/06 00:32:18;;;;;;;;;;;22.10;90.90;22.30;99847.00;;;;340586;28;82498;-92
2021/09/06 00:32:30;;;;;;;;;;;22.10;90.80;22.30;99845.00;;;;336292;28;91321;-92
2021/09/06 00:32:42;;;;;;;;;;;22.10;90.90;22.30;99855.00;;;;343555;28;83454;-92
2021/09/06 00:32:53;;;;;;;;;;;22.10;91.00;22.20;99864.00;;;;338609;28;92491;-92
2021/09/06 00:33:05;;;;;;;;;;;22.10;91.10;22.20;99854.00;;;;337804;28;83478;-92
2021/09/06 00:33:18;;;;;;;;;;;22.10;91.10;22.20;99850.00;;;;338859;28;92149;-92
2021/09/06 00:33:30;;;;;;;;;;;22.10;90.90;22.30;99852.00;;;;337908;28;82678;-92
2021/09/06 00:33:42;;;;;;;;;;;22.10;90.90;22.30;99851.00;;;;336295;28;91621;-92
2021/09/06 00:33:54;;;;;;;;;;;22.10;90.80;22.30;99851.00;;;;336630;28;83387;-92
2021/09/06 00:34:06;;;;;;;;;;;22.10;90.80;22.20;99854.00;;;;338953;28;90082;-93
2021/09/06 00:34:18;;;;;;;;;;;22.10;91.00;22.20;99850.00;;;;336615;28;82514;-92
2021/09/06 00:34:30;;;;;;;;;;;22.10;91.00;22.30;99852.00;;;;337510;28;91675;-92
2021/09/06 00:34:42;;;;;;;;;;;22.10;90.90;22.20;99849.00;;;;336644;28;83182;-92
2021/09/06 00:34:54;;;;;;;;;;;22.10;90.90;22.20;99851.00;;;;337408;28;91690;-93
2021/09/06 00:35:06;;;;;;;;;;;22.10;90.90;22.20;99851.00;;;;337958;28;82542;-93
2021/09/06 00:35:19;;;;;;;;;;;22.10;90.80;22.20;99846.00;;;;337565;28;91666;-92
2021/09/06 00:35:31;;;;;;;;;;;22.10;90.90;22.20;99850.00;;;;337891;28;82681;-92
2021/09/06 00:35:42;;;;;;;;;;;22.10;91.00;22.10;99850.00;;;;336103;28;92318;-92
2021/09/06 00:35:55;;;;;;;;;;;22.10;91.20;22.10;99844.00;;;;338828;28;83387;-92
2021/09/06 00:36:07;;;;;;;;;;;22.10;91.10;22.10;99851.00;;;;337540;28;91154;-92
2021/09/06 00:36:18;;;;;;;;;;;22.10;91.10;22.00;99852.00;;;;339124;28;83512;-92
2021/09/06 00:36:30;;;;;;;;;;;22.10;91.20;22.00;99843.00;;;;337536;28;89792;-92
2021/09/06 00:36:42;;;;;;;;;;;22.10;91.20;21.90;99847.00;;;;339245;28;83379;-93
2021/09/06 00:36:54;;;;;;;;;;;22.00;91.20;21.90;99857.00;;;;336090;28;92550;-92
2021/09/06 00:37:05;;;;;;;;;;;22.00;91.20;22.00;99853.00;;;;337942;28;83414;-92
2021/09/06 00:37:17;;;;;;;;;;;22.00;91.10;22.10;99847.00;;;;337547;28;91372;-92
2021/09/06 00:37:29;;;;;;;;;;;22.00;91.00;22.10;99844.00;;;;336660;28;82517;-92
2021/09/06 00:37:41;;;;;;;;;;;22.00;91.10;22.10;99848.00;;;;337582;28;90585;-92
2021/09/06 00:37:53;;;;;;;;;;;22.00;91.10;22.00;99854.00;;;;340621;28;82528;-92
2021/09/06 00:38:05;;;;;;;;;;;22.00;91.30;22.00;99845.00;;;;336159;28;90408;-92
2021/09/06 00:38:17;;;;;;;;;;;22.00;91.50;21.90;99844.00;;;;337949;28;83389;-92
2021/09/06 00:38:29;;;;;;;;;;;22.00;91.50;21.90;99837.00;;;;337346;28;91572;-92
2021/09/06 00:38:41;;;;;;;;;;;22.00;91.50;21.90;99850.00;;;;342108;28;82515;-92
2021/09/06 00:38:52;;;;;;;;;;;22.00;91.40;22.00;99847.00;;;;337405;28;91612;-92
2021/09/06 00:39:04;;;;;;;;;;;21.90;91.30;22.00;99851.00;;;;338073;28;83300;-92
2021/09/06 00:39:16;;;;;;;;;;;22.00;91.20;22.00;99849.00;;;;336219;28;91762;-92
2021/09/06 00:39:28;;;;;;;;;;;21.90;91.20;22.10;99852.00;;;;337975;28;83338;-92
2021/09/06 00:39:40;;;;;;;;;;;21.90;91.10;22.00;99860.00;;;;334939;28;91401;-92
2021/09/06 00:39:51;;;;;;;;;;;21.90;91.20;22.00;99845.00;;;;336623;28;83408;-93
2021/09/06 00:40:04;;;;;;;;;;;21.90;91.30;21.90;99844.00;;;;341563;28;91589;-92
2021/09/06 00:40:16;;;;;;;;;;;22.00;91.60;21.90;99846.00;;;;336627;28;82651;-92
2021/09/06 00:40:28;;;;;;;;;;;21.90;91.50;21.90;99846.00;;;;336223;28;90452;-92
2021/09/06 00:40:41;;;;;;;;;;;22.00;91.40;22.00;99848.00;;;;339363;28;82460;-92
2021/09/06 00:40:53;;;;;;;;;;;21.90;91.20;21.90;99844.00;;;;338708;28;93204;-92
2021/09/06 00:41:05;;;;;;;;;;;21.90;91.30;22.00;99848.00;;;;339282;28;83521;-92
2021/09/06 00:41:18;;;;;;;;;;;21.90;91.10;22.00;99854.00;;;;336244;28;91835;-92
2021/09/06 00:41:30;;;;;;;;;;;22.00;91.20;22.00;99856.00;;;;340516;28;83384;-92
2021/09/06 00:41:43;;;;;;;;;;;22.00;91.40;22.10;99851.00;;;;337462;28;91537;-92
2021/09/06 00:41:55;;;;;;;;;;;22.00;91.20;22.00;99849.00;;;;337889;28;83480;-92
2021/09/06 00:42:06;;;;;;;;;;;21.90;91.30;22.00;99841.00;;;;337502;28;91732;-92
2021/09/06 00:42:18;;;;;;;;;;;22.00;91.50;21.90;99852.00;;;;337895;28;82470;-92
2021/09/06 00:42:30;;;;;;;;;;;21.90;91.60;21.90;99851.00;;;;338806;28;91508;-92
2021/09/06 00:42:42;;;;;;;;;;;21.90;91.60;21.90;99853.00;;;;339334;28;82593;-92
2021/09/06 00:42:54;;;;;;;;;;;21.90;91.40;21.90;99850.00;;;;336091;28;92161;-92
2021/09/06 00:43:06;;;;;;;;;;;21.90;91.40;21.80;99852.00;;;;339230;28;83458;-93
2021/09/06 00:43:18;;;;;;;;;;;21.90;91.60;21.80;99848.00;;;;336227;28;90919;-93
2021/09/06 00:43:29;;;;;;;;;;;21.90;91.60;21.80;99852.00;;;;336597;28;83332;-93
2021/09/06 00:43:43;;;;;;;;;;;21.90;91.60;21.90;99850.00;;;;338827;28;90954;-92
2021/09/06 00:43:55;;;;;;;;;;;21.90;91.50;21.90;99853.00;;;;335252;29;83435;-93
2021/09/06 00:44:07;;;;;;;;;;;21.90;91.50;21.90;99857.00;;;;336214;28;90702;-92
2021/09/06 00:44:19;;;;;;;;;;;21.90;91.30;21.90;99854.00;;;;337877;28;83564;-92
2021/09/06 00:44:31;;;;;;;;;;;21.80;91.20;21.90;99852.00;;;;337514;28;90707;-92
2021/09/06 00:44:43;;;;;;;;;;;21.80;91.20;21.90;99852.00;;;;340611;28;82677;-92
2021/09/06 00:44:55;;;;;;;;;;;21.80;91.20;21.90;99858.00;;;;337264;28;93089;-92
2021/09/06 00:45:07;;;;;;;;;;;21.90;91.10;22.00;99854.00;;;;336666;28;82506;-92
2021/09/06 00:45:20;;;;;;;;;;;21.80;91.10;22.00;99850.00;;;;337545;28;91031;-93
2021/09/06 00:45:32;;;;;;;;;;;21.90;91.20;22.00;99851.00;;;;337870;28;83368;-92
2021/09/06 00:45:47;;;;;;;;;;;21.90;91.10;22.00;99857.00;;;;338915;28;90363;-92
2021/09/06 00:45:59;;;;;;;;;;;21.80;91.40;22.00;99857.00;;;;337990;28;82661;-92
2021/09/06 00:46:11;;;;;;;;;;;21.90;91.30;22.00;99856.00;;;;334939;28;90367;-92
2021/09/06 00:46:23;;;;;;;;;;;21.90;91.30;22.00;99848.00;;;;339158;28;83489;-92
2021/09/06 00:46:35;;;;;;;;;;;21.80;91.20;21.90;99848.00;;;;336014;28;92262;-92
2021/09/06 00:46:47;;;;;;;;;;;21.80;91.30;22.00;99854.00;;;;338036;28;83341;-92
2021/09/06 00:47:00;;;;;;;;;;;21.90;91.20;22.00;99857.00;;;;338646;28;92911;-92
2021/09/06 00:47:12;;;;;;;;;;;21.90;91.30;22.10;99858.00;;;;336718;28;83345;-92
2021/09/06 00:47:24;;;;;;;;;;;21.80;91.40;21.90;99854.00;;;;338984;28;91715;-92
2021/09/06 00:47:36;;;;;;;;;;;21.90;91.60;22.00;99849.00;;;;343782;28;82573;-92
2021/09/06 00:47:48;;;;;;;;;;;21.90;91.60;21.90;99849.00;;;;335131;28;89799;-92
2021/09/06 00:48:00;;;;;;;;;;;21.90;91.70;22.00;99843.00;;;;339482;28;83595;-92
2021/09/06 00:48:15;;;;;;;;;;;21.90;91.60;21.90;99856.00;;;;338994;28;90398;-92
2021/09/06 00:48:28;;;;;;;;;;;21.90;91.60;21.80;99857.00;;;;339372;28;83382;-92
2021/09/06 00:48:40;;;;;;;;;;;21.80;91.70;21.80;99850.00;;;;337561;28;91440;-92
2021/09/06 00:48:52;;;;;;;;;;;21.80;91.80;21.90;99851.00;;;;341035;28;83475;-92
2021/09/06 00:49:04;;;;;;;;;;;21.80;91.50;21.90;99859.00;;;;343245;28;91469;-92
2021/09/06 00:49:16;;;;;;;;;;;21.80;91.40;22.00;99849.00;;;;338243;28;82224;-93
2021/09/06 00:49:28;;;;;;;;;;;21.80;91.40;22.00;99856.00;;;;338073;28;91938;-92
2021/09/06 00:49:40;;;;;;;;;;;21.80;91.40;21.90;99851.00;;;;334062;29;83468;-92
2021/09/06 00:49:52;;;;;;;;;;;21.80;91.70;21.90;99852.00;;;;337556;28;91886;-93
2021/09/06 00:50:09;;;;;;;;;;;21.80;91.90;21.80;99858.00;;;;337998;28;84187;-92
2021/09/06 00:50:20;;;;;;;;;;;21.80;92.00;21.90;99858.00;;;;333780;29;90431;-93
2021/09/06 00:50:32;;;;;;;;;;;21.80;91.80;21.90;99852.00;;;;336758;28;82476;-92
2021/09/06 00:50:47;;;;;;;;;;;21.80;91.60;21.90;99858.00;;;;336577;28;90763;-92
2021/09/06 00:50:59;;;;;;;;;;;21.80;91.60;22.10;99853.00;;;;338274;28;82600;-92
2021/09/06 00:51:11;;;;;;;;;;;21.80;91.60;22.10;99856.00;;;;337904;28;92509;-93
2021/09/06 00:51:23;;;;;;;;;;;21.80;91.80;22.10;99856.00;;;;338616;28;83323;-92
2021/09/06 00:51:35;;;;;;;;;;;21.90;91.80;22.10;99852.00;;;;338101;28;91832;-92
2021/09/06 00:51:47;;;;;;;;;;;21.80;91.60;22.10;99850.00;;;;335831;29;83531;-92
2021/09/06 00:51:58;;;;;;;;;;;21.80;91.60;22.10;99856.00;;;;338049;28;91917;-92
2021/09/06 00:52:10;;;;;;;;;;;21.80;91.60;22.10;99851.00;;;;338450;28;82338;-92
2021/09/06 00:52:22;;;;;;;;;;;21.80;91.60;22.10;99846.00;;;;339308;28;90201;-92
2021/09/06 00:52:37;;;;;;;;;;;21.90;91.70;22.20;99852.00;;;;339656;28;82510;-91
2021/09/06 00:52:49;;;;;;;;;;;21.80;91.70;22.10;99851.00;;;;336573;28;90450;-92
2021/09/06 00:53:01;;;;;;;;;;;21.90;91.70;22.10;99852.00;;;;338324;28;83435;-92
2021/09/06 00:53:14;;;;;;;;;;;21.80;91.60;22.00;99851.00;;;;337897;28;91929;-92
2021/09/06 00:53:25;;;;;;;;;;;21.80;91.60;22.00;99847.00;;;;338258;28;82474;-92
2021/09/06 00:53:37;;;;;;;;;;;21.90;91.70;21.90;99855.00;;;;338959;28;91262;-92
2021/09/06 00:53:49;;;;;;;;;;;21.90;91.70;21.90;99843.00;;;;339552;28;83589;-92
2021/09/06 00:54:01;;;;;;;;;;;21.90;91.70;21.80;99851.00;;;;338030;28;90363;-92
2021/09/06 00:54:13;;;;;;;;;;;21.80;91.70;21.70;99855.00;;;;338233;28;83349;-92
2021/09/06 00:54:25;;;;;;;;;;;21.80;91.80;21.70;99842.00;;;;336642;28;90824;-92
2021/09/06 00:54:37;;;;;;;;;;;21.80;91.80;21.80;99846.00;;;;339598;28;82520;-92
2021/09/06 00:54:49;;;;;;;;;;;21.80;91.70;21.90;99853.00;;;;340582;28;90384;-92
2021/09/06 00:55:01;;;;;;;;;;;21.80;91.70;21.90;99852.00;;;;336816;28;83446;-92
2021/09/06 00:55:14;;;;;;;;;;;21.80;91.60;21.90;99850.00;;;;337881;28;92800;-92
2021/09/06 00:55:27;;;;;;;;;;;21.80;91.70;21.80;99851.00;;;;337036;28;83331;-92
2021/09/06 00:55:39;;;;;;;;;;;21.80;91.90;21.90;99852.00;;;;334033;29;90699;-93
2021/09/06 00:55:50;;;;;;;;;;;21.80;91.80;21.90;99859.00;;;;335798;29;82459;-92
2021/09/06 00:56:03;;;;;;;;;;;21.80;91.80;21.90;99849.00;;;;335317;29;89825;-92
2021/09/06 00:56:14;;;;;;;;;;;21.80;91.70;21.80;99845.00;;;;336884;28;83338;-92
2021/09/06 00:56:26;;;;;;;;;;;21.80;91.90;21.90;99844.00;;;;337686;28;90491;-92
2021/09/06 00:56:38;;;;;;;;;;;21.80;91.80;21.80;99839.00;;;;337107;28;82530;-92
2021/09/06 00:56:51;;;;;;;;;;;21.80;92.00;21.70;99853.00;;;;336553;28;91585;-92
2021/09/06 00:57:03;;;;;;;;;;;21.80;92.10;21.80;99856.00;;;;335773;29;83460;-91
2021/09/06 00:57:15;;;;;;;;;;;21.70;92.00;21.80;99852.00;;;;335430;29;88725;-92
2021/09/06 00:57:26;;;;;;;;;;;21.70;92.00;21.80;99850.00;;;;338404;28;82471;-92
2021/09/06 00:57:38;;;;;;;;;;;21.80;91.90;21.80;99849.00;;;;337910;28;91803;-92
2021/09/06 00:57:50;;;;;;;;;;;21.70;91.90;21.80;99850.00;;;;335989;29;83405;-92
2021/09/06 00:58:02;;;;;;;;;;;21.80;91.90;21.70;99857.00;;;;338020;28;91303;-92
2021/09/06 00:58:14;;;;;;;;;;;21.70;92.00;21.70;99851.00;;;;337058;28;83445;-92
2021/09/06 00:58:26;;;;;;;;;;;21.70;91.90;21.70;99850.00;;;;336508;28;90654;-92
2021/09/06 00:58:38;;;;;;;;;;;21.70;92.00;21.80;99844.00;;;;337071;28;82481;-92
2021/09/06 00:58:50;;;;;;;;;;;21.70;91.90;21.70;99855.00;;;;337941;28;90403;-92
2021/09/06 00:59:02;;;;;;;;;;;21.70;92.20;21.80;99847.00;;;;335708;28;82663;-93
2021/09/06 00:59:14;;;;;;;;;;;21.70;91.70;21.90;99841.00;;;;338038;28;91769;-92
2021/09/06 00:59:26;;;;;;;;;;;21.70;91.70;21.90;99848.00;;;;335675;29;83373;-93
2021/09/06 00:59:38;;;;;;;;;;;21.70;91.80;22.00;99852.00;;;;340519;28;90791;-92
2021/09/06 00:59:49;;;;;;;;;;;21.70;91.70;21.90;99844.00;;;;339612;28;82539;-93
2021/09/06 01:00:07;;;;;;;;;;;21.70;91.80;21.80;99852.00;;;;340556;28;90545;-92
2021/09/06 01:00:19;;;;;;;;;;;21.70;91.80;21.80;99852.00;;;;339591;28;82662;-92
2021/09/06 01:00:31;;;;;;;;;;;21.80;92.10;21.70;99850.00;;;;337339;28;88211;-92
2021/09/06 01:00:43;;;;;;;;;;;21.80;92.20;21.60;99854.00;;;;340612;28;82421;-92
2021/09/06 01:00:55;;;;;;;;;;;21.70;92.10;21.60;99854.00;;;;339250;28;90536;-91